createdAt,value
2022-11-13T00:00:59.929Z,1.30
2022-11-13T00:03:47.552Z,1.20
2022-11-13T00:06:34.520Z,1.20
2022-11-13T00:09:21.386Z,1.20
2022-11-13T00:12:09.712Z,1.20
2022-11-13T00:14:57.001Z,1.10
2022-11-13T00:17:43.777Z,1.10
2022-11-13T00:20:31.120Z,1.10
2022-11-13T00:23:18.052Z,1.00
2022-11-13T00:26:06.958Z,1.00
2022-11-13T00:28:56.605Z,1.00
2022-11-13T00:31:43.537Z,0.90
2022-11-13T00:37:37.366Z,0.90
2022-11-13T00:40:24.138Z,0.90
2022-11-13T00:43:11.439Z,0.80
2022-11-13T00:45:59.992Z,0.80
2022-11-13T00:48:47.183Z,0.80
2022-11-13T00:51:34.322Z,0.80
2022-11-13T00:54:21.461Z,0.80
2022-11-13T00:57:08.279Z,0.80
2022-11-13T00:59:55.451Z,0.70
2022-11-13T01:02:43.818Z,0.70
2022-11-13T01:05:30.786Z,0.70
2022-11-13T01:08:17.657Z,0.70
2022-11-13T01:11:10.421Z,0.70
2022-11-13T01:13:58.105Z,0.60
2022-11-13T01:16:45.458Z,0.60
2022-11-13T01:19:33.827Z,0.60
2022-11-13T01:22:20.910Z,0.60
2022-11-13T01:25:08.676Z,0.50
2022-11-13T01:27:55.658Z,0.50
2022-11-13T01:30:42.481Z,0.50
2022-11-13T01:33:30.116Z,0.50
2022-11-13T01:36:20.478Z,0.50
2022-11-13T01:39:07.192Z,0.50
2022-11-13T01:41:54.821Z,0.50
2022-11-13T01:44:50.457Z,0.40
2022-11-13T01:47:37.472Z,0.40
2022-11-13T01:50:24.711Z,0.30
2022-11-13T01:53:14.520Z,0.30
2022-11-13T01:56:01.426Z,0.30
2022-11-13T01:58:54.538Z,0.30
2022-11-13T02:01:42.484Z,0.30
2022-11-13T02:04:30.453Z,0.30
2022-11-13T02:07:21.529Z,0.20
2022-11-13T02:10:10.633Z,0.30
2022-11-13T02:12:58.081Z,0.20
2022-11-13T02:15:47.257Z,0.20
2022-11-13T02:18:36.236Z,0.20
2022-11-13T02:21:38.954Z,0.20
2022-11-13T02:24:32.800Z,0.20
2022-11-13T02:27:25.667Z,0.20
2022-11-13T02:30:16.488Z,0.20
2022-11-13T02:33:20.525Z,0.20
2022-11-13T02:36:09.759Z,0.10
2022-11-13T02:38:59.850Z,0.20
2022-11-13T02:41:48.328Z,0.10
2022-11-13T02:44:35.206Z,0.10
2022-11-13T02:47:22.816Z,0.10
2022-11-13T02:50:11.502Z,0.10
2022-11-13T02:52:58.246Z,0.00
2022-11-13T02:55:46.608Z,0.00
2022-11-13T02:58:35.344Z,0.00
2022-11-13T03:01:22.555Z,0.00
2022-11-13T03:04:09.596Z,0.00
2022-11-13T03:06:56.315Z,-0.10
2022-11-13T03:09:43.710Z,0.00
2022-11-13T03:12:31.750Z,-0.10
2022-11-13T03:15:20.192Z,0.00
2022-11-13T03:18:07.929Z,-0.10
2022-11-13T03:20:54.994Z,0.00
2022-11-13T03:23:45.076Z,-0.10
2022-11-13T03:26:32.424Z,-0.10
2022-11-13T03:29:19.742Z,-0.10
2022-11-13T03:32:08.828Z,-0.10
2022-11-13T03:34:56.070Z,-0.10
2022-11-13T03:37:42.912Z,-0.10
2022-11-13T03:40:30.160Z,-0.10
2022-11-13T03:43:17.226Z,-0.10
2022-11-13T03:46:04.116Z,-0.10
2022-11-13T03:48:52.732Z,-0.10
2022-11-13T03:51:39.821Z,0.00
2022-11-13T03:54:27.086Z,0.00
2022-11-13T03:57:15.174Z,0.10
2022-11-13T04:00:02.199Z,0.10
2022-11-13T04:02:49.276Z,0.20
2022-11-13T04:05:37.440Z,0.20
2022-11-13T04:08:24.257Z,0.30
2022-11-13T04:11:12.511Z,0.30
2022-11-13T04:13:59.500Z,0.30
2022-11-13T04:16:46.334Z,0.40
2022-11-13T04:19:33.093Z,0.40
2022-11-13T04:22:21.341Z,0.40
2022-11-13T04:25:09.269Z,0.40
2022-11-13T04:27:56.118Z,0.40
2022-11-13T04:30:43.355Z,0.50
2022-11-13T04:33:30.493Z,0.50
2022-11-13T04:36:17.276Z,0.50
2022-11-13T04:39:05.694Z,0.50
2022-11-13T04:42:10.224Z,0.50
2022-11-13T04:44:57.158Z,0.50
2022-11-13T04:47:44.020Z,0.40
2022-11-13T04:50:32.057Z,0.30
2022-11-13T04:53:19.164Z,0.30
2022-11-13T04:56:07.926Z,0.30
2022-11-13T04:58:54.930Z,0.30
2022-11-13T05:01:42.249Z,0.40
2022-11-13T05:04:29.362Z,0.40
2022-11-13T05:07:16.223Z,0.40
2022-11-13T05:10:03.169Z,0.40
2022-11-13T05:12:51.998Z,0.40
2022-11-13T05:15:39.039Z,0.30
2022-11-13T05:18:27.166Z,0.30
2022-11-13T05:21:14.944Z,0.30
2022-11-13T05:24:02.244Z,0.30
2022-11-13T05:26:49.404Z,0.30
2022-11-13T05:29:37.824Z,0.30
2022-11-13T05:32:24.746Z,0.30
2022-11-13T05:35:11.540Z,0.20
2022-11-13T05:38:02.066Z,0.20
2022-11-13T05:40:49.093Z,0.10
2022-11-13T05:43:36.674Z,0.10
2022-11-13T05:46:27.557Z,0.10
2022-11-13T05:49:14.515Z,0.10
2022-11-13T05:52:01.408Z,0.10
2022-11-13T05:54:48.427Z,0.10
2022-11-13T05:57:36.079Z,0.10
2022-11-13T06:00:23.158Z,0.10
2022-11-13T06:03:12.066Z,0.00
2022-11-13T06:06:00.090Z,0.00
2022-11-13T06:08:48.234Z,-0.10
2022-11-13T06:11:34.998Z,-0.10
2022-11-13T06:14:21.929Z,-0.10
2022-11-13T06:17:09.223Z,-0.10
2022-11-13T06:19:57.692Z,-0.10
2022-11-13T06:22:44.926Z,-0.10
2022-11-13T06:25:31.875Z,-0.10
2022-11-13T06:28:18.612Z,-0.10
2022-11-13T06:31:07.096Z,0.00
2022-11-13T06:33:54.119Z,0.00
2022-11-13T06:36:42.405Z,0.00
2022-11-13T06:39:29.437Z,0.00
2022-11-13T06:42:16.420Z,0.00
2022-11-13T06:45:03.266Z,0.00
2022-11-13T06:47:50.230Z,0.00
2022-11-13T06:50:37.011Z,0.00
2022-11-13T06:53:25.653Z,0.00
2022-11-13T06:56:13.242Z,0.00
2022-11-13T06:59:00.445Z,0.00
2022-11-13T07:01:47.006Z,0.00
2022-11-13T07:04:34.308Z,0.00
2022-11-13T07:07:21.265Z,0.10
2022-11-13T07:10:11.141Z,0.10
2022-11-13T07:13:01.189Z,0.10
2022-11-13T07:15:48.560Z,0.20
2022-11-13T07:18:35.818Z,0.30
2022-11-13T07:21:23.316Z,0.50
2022-11-13T07:24:15.554Z,0.60
2022-11-13T07:27:06.391Z,0.80
2022-11-13T07:29:53.447Z,0.90
2022-11-13T07:32:40.910Z,1.10
2022-11-13T07:35:28.123Z,1.40
2022-11-13T07:38:14.851Z,1.60
2022-11-13T07:41:02.591Z,2.10
2022-11-13T07:43:51.018Z,2.50
2022-11-13T07:46:37.958Z,3.60
2022-11-13T07:49:24.783Z,4.40
2022-11-13T07:52:13.768Z,5.30
2022-11-13T07:55:00.697Z,5.30
2022-11-13T07:57:47.681Z,5.90
2022-11-13T08:00:37.250Z,6.90
2022-11-13T08:03:25.845Z,7.30
2022-11-13T08:06:12.702Z,7.90
2022-11-13T08:08:59.604Z,8.30
2022-11-13T08:12:15.761Z,9.40
2022-11-13T08:15:12.124Z,9.80
2022-11-13T08:18:03.654Z,9.80
2022-11-13T08:21:14.633Z,10.70
2022-11-13T08:24:06.311Z,11.20
2022-11-13T08:26:53.465Z,11.60
2022-11-13T08:29:40.896Z,10.80
2022-11-13T08:32:27.982Z,10.40
2022-11-13T08:35:19.492Z,9.50
2022-11-13T08:38:09.412Z,8.70
2022-11-13T08:41:00.444Z,9.10
2022-11-13T08:43:49.059Z,9.00
2022-11-13T08:46:36.402Z,9.00
2022-11-13T08:49:23.335Z,8.80
2022-11-13T08:52:12.070Z,8.80
2022-11-13T08:54:59.264Z,9.40
2022-11-13T08:57:47.072Z,11.50
2022-11-13T09:00:34.561Z,13.00
2022-11-13T09:03:22.118Z,13.30
2022-11-13T09:06:10.829Z,13.10
2022-11-13T09:08:59.587Z,12.40
2022-11-13T09:11:46.617Z,11.60
2022-11-13T09:14:33.462Z,11.70
2022-11-13T09:17:20.813Z,11.30
2022-11-13T09:20:13.613Z,11.90
2022-11-13T09:23:02.133Z,12.40
2022-11-13T09:25:50.600Z,13.40
2022-11-13T09:28:37.882Z,13.10
2022-11-13T09:31:25.227Z,13.20
2022-11-13T09:34:13.632Z,14.10
2022-11-13T09:37:00.553Z,13.60
2022-11-13T09:39:47.534Z,13.20
2022-11-13T09:42:39.432Z,12.50
2022-11-13T09:45:34.053Z,13.50
2022-11-13T09:48:37.883Z,15.10
2022-11-13T09:51:29.489Z,16.60
2022-11-13T09:54:18.445Z,17.40
2022-11-13T09:57:21.673Z,18.20
2022-11-13T10:00:17.895Z,15.00
2022-11-13T10:03:46.277Z,14.30
2022-11-13T10:06:38.013Z,15.30
2022-11-13T10:09:33.504Z,16.40
2022-11-13T10:12:21.970Z,16.20
2022-11-13T10:15:11.915Z,16.10
2022-11-13T10:18:06.196Z,15.60
2022-11-13T10:20:59.220Z,16.50
2022-11-13T10:23:56.405Z,16.80
2022-11-13T10:26:43.676Z,16.30
2022-11-13T10:29:31.196Z,16.50
2022-11-13T10:32:21.946Z,16.00
2022-11-13T10:35:36.961Z,15.40
2022-11-13T10:38:29.300Z,15.10
2022-11-13T10:41:20.028Z,14.70
2022-11-13T10:44:09.524Z,14.60
2022-11-13T10:47:06.785Z,15.00
2022-11-13T10:49:54.124Z,15.70
2022-11-13T10:52:50.330Z,16.20
2022-11-13T10:55:41.290Z,16.00
2022-11-13T10:58:29.452Z,16.50
2022-11-13T11:01:23.110Z,15.60
2022-11-13T11:04:15.424Z,14.70
2022-11-13T11:07:20.126Z,14.80
2022-11-13T11:10:23.393Z,15.00
2022-11-13T11:13:13.156Z,14.90
2022-11-13T11:16:03.654Z,15.30
2022-11-13T11:18:56.397Z,14.40
2022-11-13T11:21:45.162Z,14.20
2022-11-13T11:24:36.445Z,13.20
2022-11-13T11:27:30.702Z,13.30
2022-11-13T11:30:22.123Z,13.90
2022-11-13T11:33:18.224Z,14.70
2022-11-13T11:36:16.012Z,13.80
2022-11-13T11:39:26.789Z,13.40
2022-11-13T11:42:24.673Z,12.80
2022-11-13T11:45:27.315Z,12.80
2022-11-13T11:48:16.264Z,12.80
2022-11-13T11:51:09.359Z,12.70
2022-11-13T11:54:07.411Z,12.90
2022-11-13T11:56:57.111Z,13.30
2022-11-13T12:00:02.620Z,13.30
2022-11-13T12:03:30.526Z,13.20
2022-11-13T12:06:25.125Z,13.40
2022-11-13T12:09:22.270Z,13.30
2022-11-13T12:12:15.302Z,13.00
2022-11-13T12:15:09.093Z,13.00
2022-11-13T12:18:06.844Z,12.20
2022-11-13T12:21:03.022Z,11.80
2022-11-13T12:24:13.875Z,11.30
2022-11-13T12:27:11.156Z,11.50
2022-11-13T12:30:10.195Z,11.90
2022-11-13T12:33:10.398Z,12.10
2022-11-13T12:35:59.335Z,11.80
2022-11-13T12:38:51.671Z,11.90
2022-11-13T12:41:44.315Z,12.00
2022-11-13T12:44:32.475Z,11.90
2022-11-13T12:47:19.879Z,11.50
2022-11-13T12:50:21.900Z,11.00
2022-11-13T12:53:13.357Z,10.70
2022-11-13T12:56:01.932Z,10.70
2022-11-13T12:59:28.687Z,10.70
2022-11-13T13:02:34.142Z,10.50
2022-11-13T13:05:27.482Z,10.80
2022-11-13T13:08:47.969Z,10.90
2022-11-13T13:11:43.221Z,11.00
2022-11-13T13:14:55.500Z,11.10
2022-11-13T13:17:42.725Z,11.10
2022-11-13T13:20:36.790Z,11.10
2022-11-13T13:23:29.862Z,10.90
2022-11-13T13:26:25.309Z,10.90
2022-11-13T13:29:19.241Z,10.80
2022-11-13T13:32:20.610Z,10.90
2022-11-13T13:35:15.193Z,11.00
2022-11-13T13:38:07.193Z,10.90
2022-11-13T13:41:11.279Z,10.70
2022-11-13T13:44:14.956Z,10.60
2022-11-13T13:47:04.375Z,10.50
2022-11-13T13:50:29.745Z,10.60
2022-11-13T13:53:45.532Z,10.60
2022-11-13T13:56:33.599Z,9.90
2022-11-13T13:59:25.220Z,9.90
2022-11-13T14:02:17.928Z,10.00
2022-11-13T14:05:25.571Z,9.90
2022-11-13T14:08:19.456Z,9.70
2022-11-13T14:11:19.625Z,9.70
2022-11-13T14:14:10.762Z,9.70
2022-11-13T14:17:01.777Z,9.30
2022-11-13T14:19:51.646Z,9.10
2022-11-13T14:22:39.469Z,8.90
2022-11-13T14:25:29.177Z,8.70
2022-11-13T14:28:18.021Z,8.70
2022-11-13T14:31:08.473Z,8.40
2022-11-13T14:33:58.239Z,8.20
2022-11-13T14:36:45.835Z,8.10
2022-11-13T14:39:35.438Z,7.80
2022-11-13T14:42:43.067Z,7.90
2022-11-13T14:45:31.751Z,7.80
2022-11-13T14:48:21.965Z,7.70
2022-11-13T14:51:24.842Z,7.70
2022-11-13T14:54:46.905Z,7.70
2022-11-13T14:57:48.975Z,7.60
2022-11-13T15:00:37.751Z,7.50
2022-11-13T15:03:25.610Z,7.40
2022-11-13T15:06:17.269Z,7.10
2022-11-13T15:09:05.890Z,7.00
2022-11-13T15:11:53.506Z,6.90
2022-11-13T15:14:42.654Z,6.80
2022-11-13T15:17:49.730Z,6.80
2022-11-13T15:20:37.079Z,6.70
2022-11-13T15:23:29.415Z,6.70
2022-11-13T15:26:16.844Z,6.60
2022-11-13T15:29:03.633Z,6.40
2022-11-13T15:31:50.609Z,6.20
2022-11-13T15:34:37.678Z,6.10
2022-11-13T15:37:24.943Z,5.90
2022-11-13T15:40:14.773Z,5.80
2022-11-13T15:43:02.719Z,5.70
2022-11-13T15:45:50.045Z,5.60
2022-11-13T15:48:37.352Z,5.60
2022-11-13T15:51:26.992Z,5.40
2022-11-13T15:54:20.346Z,5.30
2022-11-13T15:57:11.721Z,5.20
2022-11-13T15:59:59.073Z,5.20
2022-11-13T16:02:50.396Z,5.00
2022-11-13T16:05:37.489Z,4.90
2022-11-13T16:08:24.273Z,4.80
2022-11-13T16:11:15.586Z,4.70
2022-11-13T16:14:04.781Z,4.70
2022-11-13T16:16:52.040Z,4.60
2022-11-13T16:19:40.161Z,4.40
2022-11-13T16:22:28.380Z,4.30
2022-11-13T16:25:18.616Z,4.10
2022-11-13T16:28:06.639Z,3.90
2022-11-13T16:30:55.481Z,3.80
2022-11-13T16:33:42.477Z,3.70
2022-11-13T16:36:30.256Z,3.60
2022-11-13T16:39:18.468Z,3.60
2022-11-13T16:42:06.442Z,3.60
2022-11-13T16:44:53.611Z,3.60
2022-11-13T16:47:42.799Z,3.60
2022-11-13T16:51:37.674Z,3.70
2022-11-13T16:54:46.828Z,3.70
2022-11-13T16:57:34.324Z,3.90
2022-11-13T17:00:21.919Z,3.90
2022-11-13T17:03:10.497Z,4.00
2022-11-13T17:05:57.654Z,4.10
2022-11-13T17:08:44.770Z,4.10
2022-11-13T17:11:33.531Z,4.10
2022-11-13T17:14:20.681Z,4.00
2022-11-13T17:17:11.713Z,4.00
2022-11-13T17:20:00.381Z,4.00
2022-11-13T17:22:49.385Z,3.90
2022-11-13T17:25:36.550Z,3.80
2022-11-13T17:28:23.355Z,3.70
2022-11-13T17:31:13.221Z,3.60
2022-11-13T17:34:00.179Z,3.60
2022-11-13T17:36:48.904Z,3.70
2022-11-13T17:39:36.122Z,3.80
2022-11-13T17:42:22.975Z,3.90
2022-11-13T17:45:10.934Z,3.90
2022-11-13T17:47:58.094Z,4.10
2022-11-13T17:50:57.324Z,4.10
2022-11-13T17:54:15.943Z,4.10
2022-11-13T17:57:03.274Z,3.90
2022-11-13T17:59:50.350Z,3.90
2022-11-13T18:02:37.496Z,3.80
2022-11-13T18:05:24.678Z,3.80
2022-11-13T18:08:13.825Z,3.80
2022-11-13T18:11:08.411Z,3.80
2022-11-13T18:13:55.668Z,3.90
2022-11-13T18:16:43.241Z,3.70
2022-11-13T18:19:30.907Z,3.60
2022-11-13T18:22:18.734Z,3.50
2022-11-13T18:25:06.550Z,3.40
2022-11-13T18:27:55.634Z,3.40
2022-11-13T18:30:42.652Z,3.20
2022-11-13T18:33:44.111Z,3.20
2022-11-13T18:36:32.239Z,3.20
2022-11-13T18:39:19.471Z,3.10
2022-11-13T18:42:06.688Z,2.90
2022-11-13T18:44:55.210Z,2.90
2022-11-13T18:47:43.384Z,3.00
2022-11-13T18:50:30.308Z,3.10
2022-11-13T18:53:17.515Z,3.30
2022-11-13T18:56:06.942Z,3.30
2022-11-13T18:58:55.740Z,3.40
2022-11-13T19:01:44.152Z,3.40
2022-11-13T19:04:31.430Z,3.50
2022-11-13T19:07:18.386Z,3.50
2022-11-13T19:10:06.571Z,3.60
2022-11-13T19:12:53.634Z,3.50
2022-11-13T19:15:41.242Z,3.60
2022-11-13T19:18:29.879Z,3.60
2022-11-13T19:21:19.002Z,3.60
2022-11-13T19:24:06.550Z,3.50
2022-11-13T19:26:53.977Z,3.40
2022-11-13T19:29:41.435Z,3.30
2022-11-13T19:32:28.403Z,3.20
2022-11-13T19:35:17.171Z,3.20
2022-11-13T19:38:04.125Z,3.10
2022-11-13T19:40:52.915Z,3.10
2022-11-13T19:43:41.735Z,3.00
2022-11-13T19:46:32.239Z,2.90
2022-11-13T19:49:20.540Z,3.00
2022-11-13T19:52:09.064Z,3.00
2022-11-13T19:54:56.829Z,3.00
2022-11-13T19:57:46.168Z,2.90
2022-11-13T20:00:33.471Z,2.80
2022-11-13T20:03:20.587Z,2.90
2022-11-13T20:06:08.490Z,2.90
2022-11-13T20:08:57.448Z,2.90
2022-11-13T20:11:45.312Z,2.90
2022-11-13T20:14:37.149Z,2.80
2022-11-13T20:17:25.711Z,2.70
2022-11-13T20:20:13.184Z,2.80
2022-11-13T20:23:00.682Z,2.90
2022-11-13T20:25:59.202Z,2.90
2022-11-13T20:28:46.331Z,2.90
2022-11-13T20:31:33.188Z,2.80
2022-11-13T20:34:20.251Z,2.80
2022-11-13T20:37:07.354Z,2.80
2022-11-13T20:39:54.463Z,2.80
2022-11-13T20:42:43.183Z,2.80
2022-11-13T20:45:30.302Z,2.80
2022-11-13T20:48:17.423Z,2.80
2022-11-13T20:51:09.459Z,2.70
2022-11-13T20:53:56.773Z,2.70
2022-11-13T20:56:44.226Z,2.70
2022-11-13T20:59:32.785Z,2.60
2022-11-13T21:02:21.130Z,2.60
2022-11-13T21:05:08.925Z,2.50
2022-11-13T21:07:55.853Z,2.40
2022-11-13T21:10:42.649Z,2.30
2022-11-13T21:13:30.187Z,2.30
2022-11-13T21:16:18.903Z,2.20
2022-11-13T21:19:05.963Z,2.10
2022-11-13T21:21:53.695Z,2.10
2022-11-13T21:24:41.023Z,2.10
2022-11-13T21:27:28.004Z,2.10
2022-11-13T21:30:15.500Z,2.00
2022-11-13T21:33:03.926Z,2.10
2022-11-13T21:35:52.057Z,2.20
2022-11-13T21:38:38.761Z,2.20
2022-11-13T21:41:26.936Z,2.30
2022-11-13T21:44:13.822Z,2.10
2022-11-13T21:47:01.015Z,2.00
2022-11-13T21:49:49.499Z,1.90
2022-11-13T21:52:36.565Z,1.80
2022-11-13T21:55:23.529Z,1.90
2022-11-13T21:58:10.704Z,1.90
2022-11-13T22:00:57.565Z,1.90
2022-11-13T22:03:44.556Z,1.90
2022-11-13T22:06:36.235Z,1.90
2022-11-13T22:09:25.437Z,1.90
2022-11-13T22:12:12.678Z,2.00
2022-11-13T22:14:59.907Z,2.00
2022-11-13T22:17:46.711Z,1.90
2022-11-13T22:20:33.994Z,1.90
2022-11-13T22:23:22.877Z,1.90
2022-11-13T22:26:11.227Z,2.00
2022-11-13T22:28:59.995Z,2.00
2022-11-13T22:31:46.822Z,2.10
2022-11-13T22:34:33.735Z,2.10
2022-11-13T22:37:20.945Z,2.10
2022-11-13T22:40:11.374Z,2.10
2022-11-13T22:42:58.408Z,2.10
2022-11-13T22:45:45.491Z,2.10
2022-11-13T22:48:33.630Z,2.00
2022-11-13T22:51:23.127Z,2.10
2022-11-13T22:54:12.434Z,2.10
2022-11-13T22:57:04.194Z,1.90
2022-11-13T22:59:51.108Z,1.90
2022-11-13T23:02:41.842Z,1.90
2022-11-13T23:05:31.607Z,1.90
2022-11-13T23:08:18.588Z,1.90
2022-11-13T23:11:05.594Z,1.80
2022-11-13T23:13:55.724Z,1.70
2022-11-13T23:16:43.024Z,1.60
2022-11-13T23:19:30.277Z,1.60
2022-11-13T23:22:16.951Z,1.40
2022-11-13T23:25:04.047Z,1.40
2022-11-13T23:27:50.862Z,1.20
2022-11-13T23:30:39.256Z,1.30
2022-11-13T23:33:26.376Z,1.20
2022-11-13T23:36:14.415Z,1.20
2022-11-13T23:39:01.413Z,1.20
2022-11-13T23:41:48.810Z,1.30
2022-11-13T23:44:35.635Z,1.30
2022-11-13T23:47:23.804Z,1.30
2022-11-13T23:50:11.824Z,1.20
2022-11-13T23:52:58.651Z,1.10
2022-11-13T23:55:46.226Z,1.10
2022-11-13T23:58:33.637Z,1.10
